Time;durP1;ratioP1;P1;durP2;ratioP2;P2;SDS_P1;SDS_P2;PMS_P1;PMS_P2;Temp;Humidity;BMP_temperature;BMP_pressure;BME280_temperature;BME280_humidity;BME280_pressure;Samples;Min_cycle;Max_cycle;Signal;HPM_P1;HPM_P2
2021/08/14 04:31:27;;;;;;;10.50;9.37;;;16.50;99.90;;;;;;5694265;23;21131;-78
2021/08/14 04:33:53;;;;;;;9.40;8.37;;;16.50;99.90;;;;;;4931782;29;20444;-82
2021/08/14 04:36:19;;;;;;;12.53;10.27;;;16.50;99.90;;;;;;4926662;29;20186;-81
2021/08/14 04:38:44;;;;;;;9.50;8.30;;;16.50;99.90;;;;;;4956413;29;20185;-81
2021/08/14 04:41:10;;;;;;;11.23;8.70;;;16.50;99.90;;;;;;4952050;28;20353;-82
2021/08/14 04:43:35;;;;;;;15.90;9.00;;;16.50;99.90;;;;;;4955458;28;20213;-82
2021/08/14 04:46:01;;;;;;;12.90;9.03;;;16.50;99.90;;;;;;4948417;29;20220;-81
2021/08/14 04:48:26;;;;;;;15.67;10.10;;;16.50;99.90;;;;;;4956797;28;20192;-81
2021/08/14 04:50:52;;;;;;;12.30;9.67;;;16.60;99.90;;;;;;4953495;28;20219;-82
2021/08/14 04:53:17;;;;;;;10.47;9.47;;;16.60;99.90;;;;;;4950363;28;20197;-82
2021/08/14 04:55:43;;;;;;;12.70;9.67;;;16.60;99.90;;;;;;4953560;28;20186;-81
2021/08/14 04:58:11;;;;;;;9.60;8.37;;;16.60;99.90;;;;;;4951299;29;20276;-81
2021/08/14 05:00:37;;;;;;;9.23;8.43;;;16.60;99.90;;;;;;4951228;28;20251;-80
2021/08/14 05:03:02;;;;;;;10.13;9.03;;;16.70;99.90;;;;;;4944937;28;20447;-81
2021/08/14 05:05:28;;;;;;;13.80;9.27;;;16.70;99.90;;;;;;4956962;28;20263;-81
2021/08/14 05:07:53;;;;;;;10.80;9.27;;;16.80;99.90;;;;;;4950835;28;20188;-81
2021/08/14 05:10:19;;;;;;;13.20;8.50;;;16.80;99.90;;;;;;4956404;28;20266;-81
2021/08/14 05:12:44;;;;;;;10.47;8.80;;;16.90;99.90;;;;;;4948927;28;20197;-81
2021/08/14 05:15:10;;;;;;;9.57;8.53;;;17.00;99.90;;;;;;4936078;29;20276;-82
2021/08/14 05:17:36;;;;;;;9.20;8.30;;;17.00;99.90;;;;;;4951477;28;20547;-82
2021/08/14 05:20:02;;;;;;;13.53;9.70;;;17.20;99.90;;;;;;4956205;28;20610;-82
2021/08/14 05:22:27;;;;;;;13.30;9.00;;;17.30;99.90;;;;;;4953257;28;20207;-81
2021/08/14 05:24:53;;;;;;;13.77;9.73;;;17.40;99.90;;;;;;4951916;28;20575;-81
2021/08/14 05:27:18;;;;;;;9.30;8.27;;;17.70;99.90;;;;;;4952206;28;20235;-81
2021/08/14 05:29:44;;;;;;;12.77;9.83;;;18.00;99.90;;;;;;4924159;29;20185;-82
2021/08/14 05:32:09;;;;;;;9.10;8.07;;;18.50;99.90;;;;;;4936151;28;20232;-81
2021/08/14 05:34:35;;;;;;;8.17;7.00;;;18.90;99.90;;;;;;4917476;29;20190;-82
2021/08/14 05:37:00;;;;;;;9.93;8.93;;;19.50;99.90;;;;;;4918868;29;20659;-82
2021/08/14 05:39:26;;;;;;;11.30;8.40;;;20.00;99.90;;;;;;4947574;29;20196;-82
2021/08/14 05:41:52;;;;;;;9.90;8.10;;;20.40;99.90;;;;;;4956922;28;20196;-82
2021/08/14 05:44:19;;;;;;;11.80;7.50;;;20.80;99.90;;;;;;4940375;28;20264;-82
2021/08/14 05:46:44;;;;;;;10.37;8.40;;;21.30;99.90;;;;;;4958189;28;20427;-82
2021/08/14 05:49:10;;;;;;;9.70;8.60;;;21.50;99.90;;;;;;4953055;28;20956;-81
2021/08/14 05:51:36;;;;;;;9.07;8.17;;;21.80;99.90;;;;;;4937381;29;20334;-81
2021/08/14 05:54:02;;;;;;;14.80;9.00;;;22.30;99.90;;;;;;4939053;29;20180;-82
2021/08/14 05:56:28;;;;;;;9.37;7.80;;;22.60;99.90;;;;;;4950030;28;21012;-82
2021/08/14 05:58:53;;;;;;;11.33;8.03;;;22.80;99.90;;;;;;4950665;28;20445;-82
2021/08/14 06:01:19;;;;;;;10.37;8.83;;;23.10;99.90;;;;;;4957870;28;20209;-82
2021/08/14 06:03:44;;;;;;;9.67;8.67;;;23.40;99.90;;;;;;4957456;28;20201;-81
2021/08/14 06:06:10;;;;;;;9.47;8.50;;;23.70;99.90;;;;;;4922173;29;20186;-82
2021/08/14 06:08:36;;;;;;;9.17;7.67;;;23.90;99.90;;;;;;4922956;29;20198;-82
2021/08/14 06:11:01;;;;;;;8.83;8.03;;;24.00;99.90;;;;;;4949327;28;20708;-80
2021/08/14 06:13:27;;;;;;;11.93;7.50;;;24.40;99.90;;;;;;4959395;28;20224;-80
2021/08/14 06:15:52;;;;;;;9.80;7.50;;;24.60;99.90;;;;;;4948228;28;20272;-80
2021/08/14 06:18:18;;;;;;;9.60;8.13;;;24.80;99.90;;;;;;4959764;28;20179;-80
2021/08/14 06:20:43;;;;;;;10.70;7.73;;;25.10;99.90;;;;;;4956651;28;20196;-80
2021/08/14 06:23:09;;;;;;;8.23;7.53;;;25.40;99.90;;;;;;4960249;28;20236;-81
2021/08/14 06:25:34;;;;;;;9.60;7.30;;;25.50;99.90;;;;;;4971303;28;20568;-81
2021/08/14 06:28:00;;;;;;;7.67;6.63;;;25.70;99.90;;;;;;4950731;28;20195;-81
2021/08/14 06:30:25;;;;;;;7.93;6.83;;;26.00;99.90;;;;;;4943280;28;20194;-81
2021/08/14 06:32:51;;;;;;;11.10;7.47;;;26.20;99.90;;;;;;4951273;28;20210;-80
2021/08/14 06:35:16;;;;;;;9.70;7.93;;;26.20;99.90;;;;;;4946525;28;20196;-81
2021/08/14 06:37:43;;;;;;;10.03;8.20;;;26.40;99.90;;;;;;4954897;29;20190;-81
2021/08/14 06:40:10;;;;;;;7.87;7.10;;;26.60;99.90;;;;;;4957258;28;20586;-81
2021/08/14 06:42:36;;;;;;;8.83;8.03;;;26.70;99.90;;;;;;4932375;28;21022;-80
2021/08/14 06:45:02;;;;;;;8.67;7.43;;;26.80;99.90;;;;;;4933617;29;20468;-81
2021/08/14 06:47:27;;;;;;;12.50;8.60;;;27.00;99.90;;;;;;4966728;28;20234;-81
2021/08/14 06:49:53;;;;;;;11.67;7.67;;;27.00;99.90;;;;;;4959887;28;20412;-81
2021/08/14 06:52:18;;;;;;;10.83;8.07;;;27.00;99.90;;;;;;4954457;28;20331;-81
2021/08/14 06:54:44;;;;;;;10.23;8.60;;;27.00;99.90;;;;;;4960530;29;20208;-81
2021/08/14 06:57:09;;;;;;;13.00;8.30;;;27.10;99.90;;;;;;4955294;28;20184;-82
2021/08/14 06:59:35;;;;;;;11.37;8.03;;;27.60;99.90;;;;;;4950416;29;20265;-81
2021/08/14 07:02:00;;;;;;;10.67;9.10;;;27.60;99.90;;;;;;4954944;28;20219;-81
2021/08/14 07:04:26;;;;;;;15.27;9.83;;;27.80;99.90;;;;;;4952755;28;20594;-81
2021/08/14 07:06:51;;;;;;;12.90;8.53;;;28.20;99.90;;;;;;4955434;28;20190;-81
2021/08/14 07:09:18;;;;;;;9.10;8.13;;;28.40;99.90;;;;;;4954315;28;20317;-82
2021/08/14 07:11:45;;;;;;;12.27;8.33;;;28.60;99.90;;;;;;4957275;28;20195;-81
2021/08/14 07:14:11;;;;;;;10.43;7.60;;;28.80;99.90;;;;;;4946702;29;20441;-81
2021/08/14 07:16:37;;;;;;;13.10;8.37;;;29.00;99.90;;;;;;4958180;28;20926;-82
2021/08/14 07:19:02;;;;;;;8.27;7.47;;;29.10;99.90;;;;;;4949684;28;20444;-82
2021/08/14 07:21:28;;;;;;;10.73;8.43;;;29.30;99.90;;;;;;4958094;28;20196;-81
2021/08/14 07:23:54;;;;;;;12.50;8.30;;;29.40;99.90;;;;;;4931049;28;20214;-81
2021/08/14 07:26:20;;;;;;;8.63;7.47;;;29.40;99.90;;;;;;4923143;29;20238;-81
2021/08/14 07:28:45;;;;;;;10.10;9.07;;;29.40;99.90;;;;;;4936147;29;20184;-81
2021/08/14 07:31:11;;;;;;;8.73;7.83;;;29.60;99.90;;;;;;4939149;28;20213;-81
2021/08/14 07:33:37;;;;;;;7.30;6.60;;;29.90;99.90;;;;;;4938506;28;20614;-81
2021/08/14 07:36:03;;;;;;;12.13;7.97;;;30.10;99.90;;;;;;4953034;28;20185;-82
2021/08/14 07:38:28;;;;;;;11.23;7.70;;;30.20;99.90;;;;;;4954163;28;20196;-82
2021/08/14 07:40:54;;;;;;;8.50;7.70;;;30.40;99.90;;;;;;4928870;28;20283;-82
2021/08/14 07:43:19;;;;;;;8.17;7.47;;;30.30;99.90;;;;;;4921068;29;20269;-81
2021/08/14 07:45:45;;;;;;;9.37;8.13;;;30.50;99.90;;;;;;4947810;29;20693;-81
2021/08/14 07:48:10;;;;;;;8.10;7.30;;;30.70;99.90;;;;;;4961207;28;20180;-81
2021/08/14 07:50:36;;;;;;;12.53;8.17;;;30.60;99.90;;;;;;4952444;28;20188;-81
2021/08/14 07:53:03;;;;;;;12.27;7.30;;;30.90;99.90;;;;;;4961286;28;20169;-81
2021/08/14 07:55:29;;;;;;;8.23;7.30;;;30.80;99.90;;;;;;4941050;28;20437;-81
2021/08/14 07:57:55;;;;;;;8.73;7.10;;;30.90;99.90;;;;;;4961385;28;20420;-81
2021/08/14 08:00:22;;;;;;;11.13;8.03;;;31.10;99.90;;;;;;4943981;28;20434;-81
2021/08/14 08:02:48;;;;;;;11.40;7.13;;;31.10;99.90;;;;;;4922583;29;20231;-82
2021/08/14 08:05:14;;;;;;;6.73;6.13;;;31.00;99.90;;;;;;4934204;29;20479;-82
2021/08/14 08:07:43;;;;;;;8.43;7.30;;;31.30;99.90;;;;;;4971980;28;20183;-82
2021/08/14 08:10:09;;;;;;;10.80;6.53;;;31.40;99.90;;;;;;4962482;29;20435;-81
2021/08/14 08:12:35;;;;;;;8.17;7.37;;;31.60;99.90;;;;;;4943836;28;20464;-81
2021/08/14 08:15:01;;;;;;;7.20;6.60;;;31.50;99.90;;;;;;4940090;29;20437;-81
2021/08/14 08:17:26;;;;;;;14.87;7.63;;;31.40;99.90;;;;;;4961972;28;20427;-81
2021/08/14 08:19:52;;;;;;;7.73;7.13;;;31.40;99.90;;;;;;4959419;28;20243;-81
2021/08/14 08:22:17;;;;;;;9.77;8.13;;;31.30;99.90;;;;;;4952327;28;20212;-81
2021/08/14 08:24:43;;;;;;;11.13;7.37;;;31.50;99.90;;;;;;4961907;28;20204;-81
2021/08/14 08:27:08;;;;;;;8.27;7.50;;;31.80;99.90;;;;;;4943785;28;20545;-82
2021/08/14 08:29:34;;;;;;;7.80;6.63;;;31.90;99.90;;;;;;4945048;29;20178;-82
2021/08/14 08:31:59;;;;;;;11.57;7.20;;;32.20;99.90;;;;;;4930150;28;20308;-81
2021/08/14 08:34:25;;;;;;;12.53;7.37;;;32.10;99.90;;;;;;4944880;29;20186;-81
2021/08/14 08:36:52;;;;;;;11.80;7.57;;;32.30;99.90;;;;;;4949685;28;20188;-81
2021/08/14 08:39:18;;;;;;;8.60;6.83;;;32.30;99.90;;;;;;4942944;29;20181;-82
2021/08/14 08:41:43;;;;;;;6.60;5.97;;;32.60;99.90;;;;;;4935360;29;20453;-81
2021/08/14 08:44:09;;;;;;;12.27;7.10;;;32.90;99.90;;;;;;4927698;29;20213;-81
2021/08/14 08:46:35;;;;;;;7.37;6.70;;;32.90;99.90;;;;;;4955778;29;20196;-82
2021/08/14 08:49:03;;;;;;;8.50;6.97;;;32.90;99.90;;;;;;4962345;28;20605;-81
2021/08/14 08:51:31;;;;;;;7.77;7.17;;;33.00;99.90;;;;;;4959675;28;20481;-81
2021/08/14 08:53:57;;;;;;;7.50;6.80;;;33.10;99.90;;;;;;4950135;29;20460;-81
2021/08/14 08:56:23;;;;;;;8.40;7.40;;;33.30;99.90;;;;;;4961150;28;20906;-80
2021/08/14 08:58:49;;;;;;;9.00;6.40;;;33.50;99.90;;;;;;4935287;29;20472;-82
2021/08/14 09:01:14;;;;;;;8.97;7.30;;;33.50;99.90;;;;;;4946107;28;20216;-82
2021/08/14 09:03:40;;;;;;;8.43;7.00;;;33.50;99.90;;;;;;4952446;28;20219;-82
2021/08/14 09:06:06;;;;;;;10.37;6.33;;;33.40;99.90;;;;;;4962235;28;20252;-82
2021/08/14 09:08:31;;;;;;;8.73;6.93;;;33.40;99.90;;;;;;4960404;28;20440;-82
2021/08/14 09:11:14;;;;;;;8.93;7.00;;;33.20;99.90;;;;;;4962141;28;20195;-82
2021/08/14 09:14:04;;;;;;;7.40;6.80;;;33.30;99.90;;;;;;4953694;28;20185;-82
2021/08/14 09:16:29;;;;;;;9.87;7.00;;;32.80;99.90;;;;;;4946093;29;20908;-81
2021/08/14 09:18:59;;;;;;;7.33;6.60;;;33.00;99.90;;;;;;4954402;29;20450;-82
2021/08/14 09:21:34;;;;;;;7.37;6.67;;;33.20;99.90;;;;;;4961001;28;20204;-81
2021/08/14 09:24:07;;;;;;;9.30;6.87;;;33.70;99.90;;;;;;4938796;28;20468;-81
2021/08/14 09:26:38;;;;;;;9.37;7.50;;;34.30;99.90;;;;;;4962128;29;20467;-82
2021/08/14 09:29:06;;;;;;;10.47;7.40;;;34.50;99.90;;;;;;4940383;28;20464;-81
2021/08/14 09:31:51;;;;;;;7.67;6.90;;;34.70;99.90;;;;;;4956460;28;20466;-82
2021/08/14 09:34:25;;;;;;;9.13;7.20;;;35.30;99.90;;;;;;4946216;28;20947;-82
2021/08/14 09:37:04;;;;;;;8.80;6.00;;;35.20;99.90;;;;;;4924211;29;20987;-83
2021/08/14 09:39:31;;;;;;;8.73;7.40;;;35.50;99.90;;;;;;4923393;29;20442;-82
2021/08/14 09:42:08;;;;;;;6.93;6.33;;;35.70;99.90;;;;;;4923424;29;20485;-82
2021/08/14 09:44:35;;;;;;;10.73;7.40;;;35.60;99.90;;;;;;4924752;29;20477;-82
2021/08/14 09:47:08;;;;;;;7.70;7.00;;;35.30;99.90;;;;;;4923713;29;20605;-82
2021/08/14 09:49:54;;;;;;;9.00;7.23;;;35.70;99.90;;;;;;4930034;29;20468;-82
2021/08/14 09:52:22;;;;;;;7.37;6.70;;;35.20;99.90;;;;;;4941966;29;20449;-82
2021/08/14 09:54:48;;;;;;;8.07;7.27;;;35.60;99.90;;;;;;4945562;29;20440;-82
2021/08/14 09:57:17;;;;;;;6.77;6.17;;;35.80;99.90;;;;;;4943127;28;20449;-82
2021/08/14 09:59:45;;;;;;;7.53;6.30;;;36.00;99.90;;;;;;4939913;29;20180;-82
2021/08/14 10:02:16;;;;;;;7.03;6.03;;;36.70;99.90;;;;;;4940846;29;20468;-81
2021/08/14 10:04:41;;;;;;;7.80;6.67;;;36.70;99.90;;;;;;4940339;29;20464;-82
2021/08/14 10:07:08;;;;;;;7.50;6.90;;;36.80;99.90;;;;;;4941732;29;20417;-83
2021/08/14 10:09:34;;;;;;;7.50;6.73;;;37.10;99.90;;;;;;4942105;29;20184;-82
2021/08/14 10:12:00;;;;;;;8.63;7.00;;;37.20;99.90;;;;;;4940710;29;20436;-83
2021/08/14 10:14:26;;;;;;;8.80;7.90;;;37.20;99.90;;;;;;4941152;29;20276;-82
2021/08/14 10:16:53;;;;;;;7.67;6.97;;;37.10;99.90;;;;;;4942690;29;20444;-82
2021/08/14 10:19:20;;;;;;;7.27;6.60;;;36.40;99.90;;;;;;4942572;29;20421;-82
2021/08/14 10:21:49;;;;;;;7.43;6.60;;;36.20;99.90;;;;;;4941884;29;20448;-82
2021/08/14 10:24:14;;;;;;;9.30;6.70;;;36.50;99.90;;;;;;4942636;29;20516;-82
2021/08/14 10:26:40;;;;;;;6.60;6.10;;;36.30;99.90;;;;;;4941470;29;20413;-83
2021/08/14 10:29:05;;;;;;;7.10;6.40;;;35.90;99.90;;;;;;4938304;29;20192;-81
2021/08/14 10:31:31;;;;;;;7.17;6.47;;;35.50;99.90;;;;;;4941617;29;20221;-82
2021/08/14 10:34:19;;;;;;;7.50;6.90;;;35.80;99.90;;;;;;4940800;29;20192;-82
2021/08/14 10:36:47;;;;;;;7.57;6.43;;;36.10;99.90;;;;;;4938456;29;20189;-82
2021/08/14 10:39:25;;;;;;;9.60;7.27;;;36.20;99.90;;;;;;4937874;29;20845;-81
2021/08/14 10:41:56;;;;;;;14.13;7.23;;;35.60;99.90;;;;;;4941198;29;20445;-82
2021/08/14 10:44:46;;;;;;;8.10;7.30;;;36.10;99.90;;;;;;4939703;29;20520;-81
2021/08/14 10:47:33;;;;;;;7.43;6.87;;;36.80;99.90;;;;;;4940149;29;20424;-81
2021/08/14 10:49:59;;;;;;;7.20;6.60;;;37.30;99.90;;;;;;4938597;29;20420;-82
2021/08/14 10:52:35;;;;;;;7.57;6.93;;;37.30;99.90;;;;;;4939644;29;20437;-82
2021/08/14 10:55:05;;;;;;;8.17;7.37;;;37.10;99.90;;;;;;4939131;29;20428;-82
2021/08/14 10:57:51;;;;;;;12.90;7.03;;;37.00;99.90;;;;;;4942253;29;20417;-81
2021/08/14 11:00:20;;;;;;;9.13;8.33;;;36.90;99.90;;;;;;4942911;29;20425;-82
2021/08/14 11:03:00;;;;;;;7.97;7.27;;;36.90;99.90;;;;;;4939391;29;20471;-82
2021/08/14 11:05:26;;;;;;;10.00;7.17;;;37.30;99.90;;;;;;4939604;29;20475;-82
2021/08/14 11:07:52;;;;;;;8.43;6.80;;;37.50;99.90;;;;;;4939989;29;20416;-81
2021/08/14 11:10:40;;;;;;;8.53;7.20;;;36.90;99.90;;;;;;4939333;29;20451;-82
2021/08/14 11:13:30;;;;;;;7.33;6.70;;;36.20;99.90;;;;;;4938795;29;20441;-82
2021/08/14 11:15:56;;;;;;;8.83;7.93;;;36.20;99.90;;;;;;4941976;29;20417;-81
2021/08/14 11:18:54;;;;;;;9.40;8.37;;;35.30;99.90;;;;;;4953771;29;20409;-82
2021/08/14 11:21:39;;;;;;;7.90;7.17;;;34.50;99.90;;;;;;4948366;29;20264;-82
2021/08/14 11:24:05;;;;;;;11.60;7.20;;;33.70;99.90;;;;;;4946328;29;20831;-81
2021/08/14 11:26:35;;;;;;;10.00;7.27;;;33.80;99.90;;;;;;4947597;29;20425;-80
2021/08/14 11:29:03;;;;;;;8.13;7.30;;;34.20;99.90;;;;;;4945821;29;20204;-82
2021/08/14 11:31:29;;;;;;;8.17;7.43;;;34.70;99.90;;;;;;4945023;29;20520;-80
2021/08/14 11:34:10;;;;;;;12.27;7.30;;;35.10;99.90;;;;;;4945038;29;20421;-81
2021/08/14 11:36:36;;;;;;;6.47;5.80;;;34.80;99.90;;;;;;4944927;29;20429;-82
2021/08/14 11:39:02;;;;;;;10.33;7.63;;;34.10;99.90;;;;;;4944273;29;20424;-81
2021/08/14 11:41:28;;;;;;;9.27;7.30;;;33.80;99.90;;;;;;4945180;29;20228;-80
2021/08/14 11:44:00;;;;;;;8.57;7.67;;;33.50;99.90;;;;;;4944195;29;20472;-81
2021/08/14 11:46:26;;;;;;;11.47;7.93;;;33.40;99.90;;;;;;4943968;29;20182;-81
2021/08/14 11:48:51;;;;;;;8.20;7.40;;;33.30;99.90;;;;;;4941317;29;20798;-81
2021/08/14 11:51:22;;;;;;;8.13;7.20;;;33.20;99.90;;;;;;4942422;29;20201;-81
2021/08/14 11:53:49;;;;;;;8.07;7.27;;;32.60;99.90;;;;;;4941904;29;20205;-80
2021/08/14 11:56:16;;;;;;;8.20;7.50;;;32.40;99.90;;;;;;4942421;29;20413;-82
2021/08/14 11:58:42;;;;;;;9.33;7.50;;;32.40;99.90;;;;;;4940687;29;20789;-81
2021/08/14 12:01:11;;;;;;;8.57;7.70;;;32.70;99.90;;;;;;4942425;29;20441;-81
2021/08/14 12:03:37;;;;;;;11.50;6.33;;;32.90;99.90;;;;;;4942369;29;20452;-81
2021/08/14 12:06:15;;;;;;;7.90;6.60;;;33.30;99.90;;;;;;4940543;29;20439;-81
2021/08/14 12:08:46;;;;;;;8.00;7.30;;;33.40;99.90;;;;;;4941568;29;20256;-81
2021/08/14 12:11:19;;;;;;;8.10;6.70;;;33.40;99.90;;;;;;4941131;29;20447;-82
2021/08/14 12:13:44;;;;;;;8.80;7.20;;;33.50;99.90;;;;;;4941815;29;20445;-81
2021/08/14 12:16:18;;;;;;;7.73;7.03;;;33.70;99.90;;;;;;4941032;29;20416;-81
2021/08/14 12:18:48;;;;;;;7.77;7.07;;;33.90;99.90;;;;;;4941773;29;20178;-81
2021/08/14 12:21:16;;;;;;;8.00;7.20;;;34.20;99.90;;;;;;4940406;29;20978;-81
2021/08/14 12:23:42;;;;;;;7.37;6.77;;;34.40;99.90;;;;;;4940424;29;20818;-81
2021/08/14 12:26:25;;;;;;;9.17;7.00;;;34.60;99.90;;;;;;4940663;29;20432;-81
2021/08/14 12:29:05;;;;;;;7.83;7.00;;;33.80;99.90;;;;;;4941042;29;20410;-82
2021/08/14 12:31:46;;;;;;;8.43;7.40;;;33.50;99.90;;;;;;4940892;29;20535;-81
2021/08/14 12:34:29;;;;;;;8.13;7.37;;;32.90;99.90;;;;;;4940219;29;20461;-81
2021/08/14 12:37:04;;;;;;;9.33;7.33;;;32.80;99.90;;;;;;4941208;29;20436;-81
2021/08/14 12:39:47;;;;;;;11.67;7.53;;;32.80;99.90;;;;;;4941275;29;20419;-81
2021/08/14 12:42:36;;;;;;;8.90;7.60;;;32.90;99.90;;;;;;4941792;29;20443;-81
2021/08/14 12:45:18;;;;;;;8.13;7.33;;;32.60;99.90;;;;;;4942176;29;20469;-81
2021/08/14 12:47:45;;;;;;;9.40;7.83;;;32.70;99.90;;;;;;4942446;29;20406;-81
2021/08/14 12:50:34;;;;;;;10.37;7.73;;;32.70;99.90;;;;;;4941192;29;20409;-80
2021/08/14 12:53:08;;;;;;;8.87;7.97;;;32.50;99.90;;;;;;4940604;29;20419;-81
2021/08/14 12:55:42;;;;;;;8.83;7.77;;;32.20;99.90;;;;;;4941900;29;20509;-82
2021/08/14 12:58:09;;;;;;;9.67;8.57;;;32.20;99.90;;;;;;4941493;29;20413;-81
2021/08/14 13:00:36;;;;;;;9.33;7.33;;;32.00;99.90;;;;;;4941924;29;20504;-81
2021/08/14 13:03:02;;;;;;;8.93;8.23;;;31.90;99.90;;;;;;4941522;29;20437;-81
2021/08/14 13:05:28;;;;;;;9.73;6.33;;;32.00;99.90;;;;;;4940979;29;20457;-82
2021/08/14 13:07:54;;;;;;;7.87;7.07;;;32.20;99.90;;;;;;4942041;29;20748;-81
2021/08/14 13:10:20;;;;;;;7.70;6.90;;;32.30;99.90;;;;;;4942034;29;20189;-81
2021/08/14 13:12:58;;;;;;;10.37;8.13;;;32.40;99.90;;;;;;4941042;29;20610;-81
2021/08/14 13:15:25;;;;;;;8.60;7.80;;;32.40;99.90;;;;;;4941589;29;20413;-81
2021/08/14 13:17:52;;;;;;;10.33;7.43;;;32.50;99.90;;;;;;4940888;29;20452;-81
2021/08/14 13:20:18;;;;;;;8.50;7.80;;;32.40;99.90;;;;;;4940977;29;20825;-81
2021/08/14 13:22:44;;;;;;;9.00;8.20;;;32.40;99.90;;;;;;4941925;29;20434;-81
2021/08/14 13:25:12;;;;;;;9.10;7.10;;;32.20;99.90;;;;;;4941569;29;20468;-81
2021/08/14 13:27:42;;;;;;;16.27;7.57;;;32.00;99.90;;;;;;4941958;29;20970;-81
2021/08/14 13:30:20;;;;;;;15.50;7.23;;;31.80;99.90;;;;;;4941873;29;20417;-81
2021/08/14 13:32:46;;;;;;;7.23;6.50;;;31.70;99.90;;;;;;4941250;29;20456;-81
2021/08/14 13:35:12;;;;;;;9.63;7.67;;;31.80;99.90;;;;;;4941754;28;20542;-81
2021/08/14 13:37:38;;;;;;;7.80;7.10;;;31.70;99.90;;;;;;4940919;29;20422;-81
2021/08/14 13:40:06;;;;;;;8.80;6.70;;;31.70;99.90;;;;;;4940028;29;20788;-80
2021/08/14 13:42:32;;;;;;;9.33;7.17;;;31.70;99.90;;;;;;4941187;29;20433;-81
2021/08/14 13:44:58;;;;;;;7.53;6.83;;;31.60;99.90;;;;;;4942289;29;20457;-80
2021/08/14 13:47:24;;;;;;;8.20;7.40;;;31.60;99.90;;;;;;4942214;29;20414;-80
2021/08/14 13:49:50;;;;;;;14.43;7.53;;;31.50;99.90;;;;;;4940285;29;20189;-78
2021/08/14 13:52:15;;;;;;;10.20;7.30;;;31.50;99.90;;;;;;4940041;29;20188;-79
2021/08/14 13:54:41;;;;;;;7.87;7.10;;;31.60;99.90;;;;;;4939580;29;20650;-80
2021/08/14 13:57:06;;;;;;;9.57;7.10;;;31.70;99.90;;;;;;4940648;29;20185;-80
2021/08/14 13:59:32;;;;;;;9.93;8.27;;;31.60;99.90;;;;;;4942159;29;20209;-80
2021/08/14 14:01:57;;;;;;;13.27;8.13;;;31.50;99.90;;;;;;4941081;29;20272;-80
2021/08/14 14:04:23;;;;;;;15.83;7.20;;;31.30;99.90;;;;;;4941226;29;20219;-80
2021/08/14 14:06:48;;;;;;;10.57;7.83;;;31.10;99.90;;;;;;4942565;29;20205;-80
2021/08/14 14:09:14;;;;;;;7.40;6.67;;;31.00;99.90;;;;;;4941869;29;20252;-80
2021/08/14 14:11:40;;;;;;;9.30;7.67;;;31.00;99.90;;;;;;4942637;29;20209;-79
2021/08/14 14:14:05;;;;;;;8.20;7.27;;;31.00;99.90;;;;;;4941579;29;20421;-80
2021/08/14 14:16:31;;;;;;;11.00;6.80;;;31.00;99.90;;;;;;4944675;29;20189;-80
2021/08/14 14:18:56;;;;;;;11.20;7.43;;;31.00;99.90;;;;;;4942830;29;20659;-80
2021/08/14 14:21:22;;;;;;;8.90;8.00;;;31.10;99.90;;;;;;4942417;29;20295;-80
2021/08/14 14:23:48;;;;;;;6.83;6.23;;;31.00;99.90;;;;;;4942329;29;20213;-78
2021/08/14 14:26:13;;;;;;;11.57;7.57;;;30.80;99.90;;;;;;4941556;29;20178;-81
2021/08/14 14:28:39;;;;;;;8.87;7.43;;;30.50;99.90;;;;;;4942739;29;20624;-80
2021/08/14 14:31:04;;;;;;;9.93;7.40;;;30.40;99.90;;;;;;4942125;29;20305;-80
2021/08/14 14:33:30;;;;;;;10.80;8.27;;;30.30;99.90;;;;;;4941984;29;20196;-82
2021/08/14 14:35:55;;;;;;;10.03;6.70;;;30.20;99.90;;;;;;4942708;29;20734;-81
2021/08/14 14:38:21;;;;;;;9.00;8.10;;;30.10;99.90;;;;;;4942677;29;20214;-80
2021/08/14 14:40:47;;;;;;;7.50;6.90;;;30.10;99.90;;;;;;4942882;29;20185;-80
2021/08/14 14:43:12;;;;;;;10.70;8.80;;;30.10;99.90;;;;;;4949963;29;20185;-80
2021/08/14 14:45:38;;;;;;;9.27;8.23;;;30.20;99.90;;;;;;4951153;29;20841;-80
2021/08/14 14:48:04;;;;;;;11.97;7.50;;;30.30;99.90;;;;;;4951032;29;20177;-80
2021/08/14 14:50:29;;;;;;;8.27;7.10;;;30.40;99.90;;;;;;4947447;29;20192;-80
2021/08/14 14:52:55;;;;;;;7.53;6.80;;;30.40;99.90;;;;;;4949480;29;20185;-81
2021/08/14 14:55:22;;;;;;;8.47;7.40;;;30.40;99.90;;;;;;4951239;29;20177;-80
2021/08/14 14:57:48;;;;;;;9.63;8.57;;;30.40;99.90;;;;;;4951247;29;20192;-80
2021/08/14 15:00:15;;;;;;;8.30;7.43;;;30.50;99.90;;;;;;4948715;29;20516;-79
2021/08/14 15:02:40;;;;;;;8.30;7.47;;;30.50;99.90;;;;;;4938119;29;20219;-80
2021/08/14 15:05:06;;;;;;;8.60;7.80;;;30.40;99.90;;;;;;4941123;29;20484;-80
2021/08/14 15:07:31;;;;;;;7.73;7.00;;;30.40;99.90;;;;;;4940694;29;20178;-80
2021/08/14 15:09:57;;;;;;;9.23;8.33;;;30.30;99.90;;;;;;4940018;29;20234;-80
2021/08/14 15:12:22;;;;;;;9.93;6.97;;;30.30;99.90;;;;;;4939392;29;20193;-79
2021/08/14 15:14:48;;;;;;;9.20;8.30;;;30.30;99.90;;;;;;4938745;29;20227;-79
2021/08/14 15:17:13;;;;;;;8.10;7.40;;;30.20;99.90;;;;;;4939186;29;20184;-82
2021/08/14 15:19:39;;;;;;;10.37;7.17;;;30.20;99.90;;;;;;4940383;29;20184;-82
2021/08/14 15:22:05;;;;;;;11.13;8.33;;;30.10;99.90;;;;;;4939508;29;20233;-82
2021/08/14 15:24:32;;;;;;;10.53;8.73;;;30.20;99.90;;;;;;4938049;29;20209;-81
2021/08/14 15:26:58;;;;;;;8.47;7.53;;;30.10;99.90;;;;;;4939425;29;20413;-80
2021/08/14 15:29:24;;;;;;;12.53;7.90;;;30.10;99.90;;;;;;4940091;29;20414;-80
2021/08/14 15:31:54;;;;;;;8.47;7.70;;;30.00;99.90;;;;;;4938077;29;20456;-79
2021/08/14 15:34:20;;;;;;;8.27;7.47;;;30.00;99.90;;;;;;4938466;29;20198;-80
2021/08/14 15:36:46;;;;;;;9.93;7.57;;;30.00;99.90;;;;;;4938298;29;20425;-81
2021/08/14 15:39:12;;;;;;;10.10;7.40;;;30.00;99.90;;;;;;4938159;29;20177;-80
2021/08/14 15:41:38;;;;;;;9.20;7.30;;;29.90;99.90;;;;;;4938836;29;20468;-80
2021/08/14 15:44:03;;;;;;;8.80;7.90;;;29.80;99.90;;;;;;4938765;29;20216;-81
2021/08/14 15:46:29;;;;;;;7.63;6.83;;;29.90;99.90;;;;;;4939308;29;20184;-81
2021/08/14 15:48:54;;;;;;;13.33;7.90;;;29.90;99.90;;;;;;4938843;29;20561;-81
2021/08/14 15:51:20;;;;;;;13.70;7.60;;;29.80;99.90;;;;;;4939168;29;20191;-80
2021/08/14 15:53:45;;;;;;;9.27;8.37;;;29.70;99.90;;;;;;4938728;29;20204;-81
2021/08/14 15:56:11;;;;;;;8.30;7.50;;;29.70;99.90;;;;;;4939873;29;20702;-81
2021/08/14 15:58:36;;;;;;;8.50;6.90;;;29.70;99.90;;;;;;4939126;29;20185;-81
2021/08/14 16:01:02;;;;;;;10.47;7.50;;;29.60;99.90;;;;;;4938712;29;20256;-81
2021/08/14 16:03:27;;;;;;;9.60;8.70;;;29.60;99.90;;;;;;4939336;29;20204;-81
2021/08/14 16:05:53;;;;;;;8.53;7.70;;;29.50;99.90;;;;;;4941653;29;20749;-81
2021/08/14 16:08:18;;;;;;;9.73;7.27;;;29.50;99.90;;;;;;4941632;29;20178;-81
2021/08/14 16:10:45;;;;;;;10.93;7.57;;;29.40;99.90;;;;;;4940642;29;20666;-81
2021/08/14 16:13:11;;;;;;;8.90;8.03;;;29.40;99.90;;;;;;4941933;29;20181;-82
2021/08/14 16:15:37;;;;;;;11.13;7.77;;;29.40;99.90;;;;;;4941717;29;20934;-82
2021/08/14 16:18:03;;;;;;;8.67;7.87;;;29.40;99.90;;;;;;4940843;29;20253;-81
2021/08/14 16:20:28;;;;;;;8.97;8.00;;;29.30;99.90;;;;;;4941330;29;20184;-81
2021/08/14 16:22:54;;;;;;;7.70;6.90;;;29.20;99.90;;;;;;4941571;29;20197;-80
2021/08/14 16:25:20;;;;;;;8.93;8.13;;;29.20;99.90;;;;;;4941889;29;20209;-81
2021/08/14 16:27:45;;;;;;;8.40;7.60;;;29.20;99.90;;;;;;4942211;29;20267;-80
2021/08/14 16:30:11;;;;;;;8.10;7.40;;;29.10;99.90;;;;;;4943239;29;20611;-80
2021/08/14 16:32:37;;;;;;;10.20;7.93;;;29.10;99.90;;;;;;4941829;29;20217;-80
2021/08/14 16:35:03;;;;;;;9.57;7.97;;;29.10;99.90;;;;;;4942229;29;20428;-81
2021/08/14 16:37:28;;;;;;;8.70;7.83;;;29.00;99.90;;;;;;4942565;29;20173;-81
2021/08/14 16:39:54;;;;;;;11.47;9.07;;;29.00;99.90;;;;;;4941856;29;20200;-81
2021/08/14 16:42:20;;;;;;;11.00;7.87;;;29.00;99.90;;;;;;4939967;29;20211;-81
2021/08/14 16:44:45;;;;;;;8.57;7.87;;;29.00;99.90;;;;;;4940368;29;20213;-81
2021/08/14 16:47:11;;;;;;;12.50;7.80;;;28.90;99.90;;;;;;4941276;29;20182;-82
2021/08/14 16:49:36;;;;;;;16.37;12.27;;;28.90;99.90;;;;;;4946390;29;20176;-81
2021/08/14 16:52:02;;;;;;;9.10;8.30;;;28.90;99.90;;;;;;4943129;29;20213;-81
2021/08/14 16:54:28;;;;;;;10.87;7.70;;;28.90;99.90;;;;;;4942880;29;20189;-81
2021/08/14 16:56:55;;;;;;;10.23;7.33;;;28.80;99.90;;;;;;4942435;29;20422;-81
2021/08/14 16:59:21;;;;;;;9.50;7.60;;;28.80;99.90;;;;;;4943413;29;20425;-81
2021/08/14 17:01:46;;;;;;;9.60;8.60;;;28.80;99.90;;;;;;4942158;29;20473;-81
2021/08/14 17:04:12;;;;;;;8.60;7.80;;;28.70;99.90;;;;;;4942795;29;20237;-81
2021/08/14 17:06:37;;;;;;;12.30;9.03;;;28.60;99.90;;;;;;4942605;29;20192;-81
2021/08/14 17:09:03;;;;;;;8.17;7.47;;;28.60;99.90;;;;;;4941823;29;20185;-80
2021/08/14 17:11:31;;;;;;;8.90;8.00;;;28.60;99.90;;;;;;4941866;29;20197;-80
2021/08/14 17:13:56;;;;;;;9.50;7.53;;;28.60;99.90;;;;;;4940656;29;20193;-81
2021/08/14 17:16:22;;;;;;;9.57;8.10;;;28.50;99.90;;;;;;4938835;29;20804;-80